createdAt,value
2017-10-15T00:01:17.410Z,21.60
2017-10-15T00:03:45.600Z,21.60
2017-10-15T00:06:13.804Z,21.60
2017-10-15T00:08:42.025Z,21.70
2017-10-15T00:11:10.222Z,21.70
2017-10-15T00:13:38.409Z,21.70
2017-10-15T00:16:06.607Z,21.70
2017-10-15T00:18:34.798Z,21.60
2017-10-15T00:21:03.772Z,21.60
2017-10-15T00:23:31.990Z,21.60
2017-10-15T00:26:00.178Z,21.60
2017-10-15T00:28:28.363Z,21.50
2017-10-15T00:30:56.590Z,21.50
2017-10-15T00:33:24.775Z,21.50
2017-10-15T00:35:53.055Z,21.50
2017-10-15T00:38:21.352Z,21.40
2017-10-15T00:40:49.530Z,21.40
2017-10-15T00:43:17.731Z,21.40
2017-10-15T00:45:45.954Z,21.40
2017-10-15T00:48:14.143Z,21.40
2017-10-15T00:50:42.347Z,21.40
2017-10-15T00:53:10.584Z,21.50
2017-10-15T00:55:38.784Z,21.50
2017-10-15T00:58:06.996Z,21.60
2017-10-15T01:00:35.991Z,21.60
2017-10-15T01:03:04.952Z,21.60
2017-10-15T01:05:33.159Z,21.60
2017-10-15T01:08:01.411Z,21.60
2017-10-15T01:10:29.616Z,21.60
2017-10-15T01:12:57.855Z,21.60
2017-10-15T01:15:26.101Z,21.50
2017-10-15T01:17:54.344Z,21.50
2017-10-15T01:20:22.568Z,21.50
2017-10-15T01:22:50.777Z,21.50
2017-10-15T01:25:19.811Z,21.40
2017-10-15T01:27:48.007Z,21.40
2017-10-15T01:30:16.251Z,21.40
2017-10-15T01:32:44.463Z,21.40
2017-10-15T01:35:12.667Z,21.40
2017-10-15T01:37:41.636Z,21.30
2017-10-15T01:40:09.812Z,21.30
2017-10-15T01:42:38.046Z,21.30
2017-10-15T01:45:06.260Z,21.30
2017-10-15T01:47:35.246Z,21.40
2017-10-15T01:50:03.448Z,21.40
2017-10-15T01:52:31.661Z,21.40
2017-10-15T01:54:59.900Z,21.40
2017-10-15T01:57:28.139Z,21.50
2017-10-15T01:59:56.347Z,21.50
2017-10-15T02:02:24.551Z,21.40
2017-10-15T02:04:52.908Z,21.40
2017-10-15T02:07:21.127Z,21.50
2017-10-15T02:09:49.359Z,21.40
2017-10-15T02:12:17.559Z,21.40
2017-10-15T02:14:45.779Z,21.40
2017-10-15T02:17:14.762Z,21.30
2017-10-15T02:19:43.759Z,21.30
2017-10-15T02:22:12.769Z,21.40
2017-10-15T02:24:41.009Z,21.30
2017-10-15T02:27:09.217Z,21.40
2017-10-15T02:29:37.478Z,21.40
2017-10-15T02:32:06.480Z,21.50
2017-10-15T02:34:34.706Z,21.50
2017-10-15T02:37:02.955Z,21.50
2017-10-15T02:39:31.197Z,21.50
2017-10-15T02:42:00.308Z,21.50
2017-10-15T02:44:28.559Z,21.50
2017-10-15T02:46:57.561Z,21.40
2017-10-15T02:49:26.544Z,21.40
2017-10-15T02:51:55.520Z,21.40
2017-10-15T02:54:23.798Z,21.40
2017-10-15T02:56:52.101Z,21.40
2017-10-15T02:59:20.323Z,21.40
2017-10-15T03:01:48.599Z,21.40
2017-10-15T03:04:16.820Z,21.30
2017-10-15T03:06:45.808Z,21.40
2017-10-15T03:09:14.811Z,21.40
2017-10-15T03:11:43.028Z,21.40
2017-10-15T03:14:11.251Z,21.40
2017-10-15T03:16:40.272Z,21.40
2017-10-15T03:19:08.493Z,21.50
2017-10-15T03:21:36.720Z,21.50
2017-10-15T03:24:04.947Z,21.50
2017-10-15T03:26:33.165Z,21.50
2017-10-15T03:29:02.151Z,21.40
2017-10-15T03:31:30.423Z,21.40
2017-10-15T03:33:58.663Z,21.40
2017-10-15T03:36:26.920Z,21.40
2017-10-15T03:38:55.152Z,21.40
2017-10-15T03:41:23.379Z,21.30
2017-10-15T03:43:51.547Z,21.30
2017-10-15T03:46:19.772Z,21.30
2017-10-15T03:48:48.028Z,21.30
2017-10-15T03:51:17.044Z,21.40
2017-10-15T03:53:45.325Z,21.40
2017-10-15T03:56:13.704Z,21.40
2017-10-15T03:58:41.957Z,21.40
2017-10-15T04:01:10.151Z,21.40
2017-10-15T04:03:38.371Z,21.50
2017-10-15T04:06:06.559Z,21.40
2017-10-15T04:08:35.777Z,21.40
2017-10-15T04:11:04.008Z,21.40
2017-10-15T04:13:32.264Z,21.40
2017-10-15T04:16:00.468Z,21.40
2017-10-15T04:18:28.680Z,21.40
2017-10-15T04:20:56.921Z,21.40
2017-10-15T04:23:25.129Z,21.40
2017-10-15T04:25:53.379Z,21.40
2017-10-15T04:28:22.364Z,21.40
2017-10-15T04:30:51.351Z,21.40
2017-10-15T04:33:19.543Z,21.40
2017-10-15T04:35:48.520Z,21.40
2017-10-15T04:38:17.548Z,21.40
2017-10-15T04:40:45.828Z,21.40
2017-10-15T04:43:14.040Z,21.40
2017-10-15T04:45:42.337Z,21.40
2017-10-15T04:48:11.323Z,21.40
2017-10-15T04:50:40.533Z,21.40
2017-10-15T04:53:09.488Z,21.30
2017-10-15T04:55:37.690Z,21.40
2017-10-15T04:58:06.691Z,21.30
2017-10-15T05:00:35.688Z,21.30
2017-10-15T05:03:04.693Z,21.30
2017-10-15T05:05:32.916Z,21.30
2017-10-15T05:08:01.136Z,21.30
2017-10-15T05:10:30.115Z,21.40
2017-10-15T05:12:59.110Z,21.40
2017-10-15T05:15:28.195Z,21.30
2017-10-15T05:17:57.167Z,21.30
2017-10-15T05:20:25.398Z,21.30
2017-10-15T05:22:53.643Z,21.30
2017-10-15T05:25:22.628Z,21.40
2017-10-15T05:27:51.608Z,21.40
2017-10-15T05:30:19.819Z,21.40
2017-10-15T05:32:48.035Z,21.40
2017-10-15T05:35:16.303Z,21.40
2017-10-15T05:37:44.534Z,21.40
2017-10-15T05:40:12.753Z,21.40
2017-10-15T05:42:40.965Z,21.40
2017-10-15T05:45:09.938Z,21.40
2017-10-15T05:47:38.172Z,21.40
2017-10-15T05:50:06.495Z,21.30
2017-10-15T05:52:34.763Z,21.30
2017-10-15T05:55:02.975Z,21.30
2017-10-15T05:57:31.227Z,21.30
2017-10-15T05:59:59.441Z,21.30
2017-10-15T06:02:27.676Z,21.30
2017-10-15T06:04:56.655Z,21.30
2017-10-15T06:07:24.871Z,21.40
2017-10-15T06:09:53.190Z,21.40
2017-10-15T06:12:21.442Z,21.40
2017-10-15T06:14:51.196Z,21.50
2017-10-15T06:17:19.451Z,21.50
2017-10-15T06:19:47.680Z,21.60
2017-10-15T06:22:15.881Z,21.60
2017-10-15T06:24:44.154Z,21.60
2017-10-15T06:27:12.393Z,21.60
2017-10-15T06:29:40.605Z,21.70
2017-10-15T06:32:08.856Z,21.70
2017-10-15T06:34:37.069Z,21.70
2017-10-15T06:37:05.298Z,21.70
2017-10-15T06:39:33.501Z,21.70
2017-10-15T06:42:01.738Z,21.80
2017-10-15T06:44:29.941Z,21.80
2017-10-15T06:46:58.151Z,21.80
2017-10-15T06:49:26.372Z,21.80
2017-10-15T06:51:54.634Z,21.80
2017-10-15T06:54:23.636Z,21.80
2017-10-15T06:56:51.862Z,21.80
2017-10-15T06:59:20.084Z,21.80
2017-10-15T07:01:48.311Z,21.90
2017-10-15T07:04:16.578Z,21.90
2017-10-15T07:06:44.788Z,21.90
2017-10-15T07:09:13.776Z,21.90
2017-10-15T07:11:42.739Z,21.90
2017-10-15T07:14:10.998Z,21.90
2017-10-15T07:16:39.253Z,21.90
2017-10-15T07:19:07.502Z,21.90
2017-10-15T07:21:35.762Z,21.90
2017-10-15T07:24:04.789Z,21.90
2017-10-15T07:26:32.994Z,21.90
2017-10-15T07:29:01.215Z,21.90
2017-10-15T07:31:30.236Z,21.90
2017-10-15T07:33:58.510Z,21.90
2017-10-15T07:36:26.727Z,21.90
2017-10-15T07:38:54.973Z,21.90
2017-10-15T07:41:23.205Z,21.90
2017-10-15T07:43:52.969Z,21.90
2017-10-15T07:46:21.938Z,21.90
2017-10-15T07:48:50.251Z,21.90
2017-10-15T07:51:18.528Z,21.90
2017-10-15T07:53:46.759Z,21.90
2017-10-15T07:56:15.747Z,21.90
2017-10-15T07:58:44.073Z,21.90
2017-10-15T08:01:12.331Z,22.00
2017-10-15T08:03:40.689Z,21.90
2017-10-15T08:06:08.995Z,21.90
2017-10-15T08:08:37.214Z,21.90
2017-10-15T08:11:05.424Z,21.90
2017-10-15T08:13:33.768Z,21.90
2017-10-15T08:16:02.000Z,21.90
2017-10-15T08:18:30.236Z,21.90
2017-10-15T08:20:58.442Z,21.90
2017-10-15T08:23:26.713Z,21.90
2017-10-15T08:25:54.993Z,21.90
2017-10-15T08:28:23.256Z,21.90
2017-10-15T08:30:51.488Z,21.90
2017-10-15T08:33:19.829Z,21.90
2017-10-15T08:35:48.075Z,21.90
2017-10-15T08:38:16.339Z,21.90
2017-10-15T08:40:44.775Z,21.90
2017-10-15T08:43:13.762Z,22.00
2017-10-15T08:45:42.000Z,22.00
2017-10-15T08:48:10.227Z,21.90
2017-10-15T08:50:39.192Z,21.90
2017-10-15T08:53:07.461Z,21.90
2017-10-15T08:55:35.726Z,21.90
2017-10-15T08:58:04.088Z,21.90
2017-10-15T09:00:32.301Z,22.00
2017-10-15T09:03:00.569Z,21.90
2017-10-15T09:05:28.842Z,21.90
2017-10-15T09:07:57.091Z,21.90
2017-10-15T09:10:25.314Z,21.90
2017-10-15T09:12:54.264Z,21.90
2017-10-15T09:15:22.464Z,21.90
2017-10-15T09:17:51.427Z,21.90
2017-10-15T09:20:19.960Z,21.90
2017-10-15T09:22:48.326Z,21.90
2017-10-15T09:25:17.326Z,21.90
2017-10-15T09:27:46.359Z,21.90
2017-10-15T09:30:19.383Z,21.90
2017-10-15T09:32:47.685Z,21.90
2017-10-15T09:35:17.123Z,21.90
2017-10-15T09:37:45.415Z,22.00
2017-10-15T09:40:13.638Z,22.00
2017-10-15T09:42:42.676Z,22.00
2017-10-15T09:45:10.911Z,22.00
2017-10-15T09:47:39.144Z,22.00
2017-10-15T09:50:07.392Z,22.00
2017-10-15T09:52:35.647Z,22.00
2017-10-15T09:55:03.891Z,22.00
2017-10-15T09:57:32.888Z,22.00
2017-10-15T10:00:01.136Z,22.00
2017-10-15T10:02:29.404Z,22.00
2017-10-15T10:04:57.659Z,22.00
2017-10-15T10:07:25.925Z,22.00
2017-10-15T10:09:54.139Z,22.00
2017-10-15T10:12:23.190Z,22.00
2017-10-15T10:14:51.469Z,22.00
2017-10-15T10:17:19.711Z,22.00
2017-10-15T10:19:47.925Z,22.10
2017-10-15T10:22:16.226Z,22.10
2017-10-15T10:24:45.322Z,22.10
2017-10-15T10:27:13.528Z,22.10
2017-10-15T10:29:41.758Z,22.10
2017-10-15T10:32:10.107Z,22.10
2017-10-15T10:34:38.303Z,22.10
2017-10-15T10:37:07.595Z,22.10
2017-10-15T10:39:35.802Z,22.10
2017-10-15T10:42:04.789Z,22.20
2017-10-15T10:44:33.019Z,22.10
2017-10-15T10:47:01.996Z,22.20
2017-10-15T10:49:30.236Z,22.20
2017-10-15T10:51:59.352Z,22.20
2017-10-15T10:54:28.368Z,22.20
2017-10-15T10:56:56.583Z,22.20
2017-10-15T10:59:24.836Z,22.20
2017-10-15T11:01:53.186Z,22.20
2017-10-15T11:04:21.404Z,22.20
2017-10-15T11:06:49.631Z,22.20
2017-10-15T11:09:18.740Z,22.20
2017-10-15T11:11:46.956Z,22.20
2017-10-15T11:14:15.224Z,22.20
2017-10-15T11:16:43.495Z,22.20
2017-10-15T11:19:11.751Z,22.20
2017-10-15T11:21:39.946Z,22.30
2017-10-15T11:24:08.162Z,22.30
2017-10-15T11:26:36.426Z,22.30
2017-10-15T11:29:05.437Z,22.30
2017-10-15T11:31:33.667Z,22.30
2017-10-15T11:34:01.944Z,22.30
2017-10-15T11:36:33.875Z,22.30
2017-10-15T11:39:02.936Z,22.30
2017-10-15T11:41:46.737Z,22.30
2017-10-15T11:44:14.956Z,22.30
2017-10-15T11:46:43.194Z,22.30
2017-10-15T11:49:11.451Z,22.30
2017-10-15T11:51:39.734Z,22.30
2017-10-15T11:54:07.963Z,22.40
2017-10-15T11:56:37.113Z,22.40
2017-10-15T11:59:05.329Z,22.40
2017-10-15T12:01:33.706Z,22.30
2017-10-15T12:04:02.808Z,22.30
2017-10-15T12:06:31.049Z,22.30
2017-10-15T12:09:00.137Z,22.40
2017-10-15T12:11:29.135Z,22.40
2017-10-15T12:13:58.210Z,22.40
2017-10-15T12:16:28.193Z,22.40
2017-10-15T12:18:56.427Z,22.40
2017-10-15T12:21:25.442Z,22.40
2017-10-15T12:23:53.799Z,22.40
2017-10-15T12:26:22.871Z,22.40
2017-10-15T12:28:51.961Z,22.40
2017-10-15T12:31:20.961Z,22.40
2017-10-15T12:33:49.940Z,22.40
2017-10-15T12:36:18.164Z,22.40
2017-10-15T12:38:46.399Z,22.40
2017-10-15T12:41:15.388Z,22.40
2017-10-15T12:43:43.634Z,22.40
2017-10-15T12:46:11.867Z,22.40
2017-10-15T12:48:40.859Z,22.40
2017-10-15T12:51:09.087Z,22.40
2017-10-15T12:53:37.370Z,22.40
2017-10-15T12:56:06.428Z,22.40
2017-10-15T12:58:34.658Z,22.40
2017-10-15T13:01:03.655Z,22.50
2017-10-15T13:03:32.695Z,22.50
2017-10-15T13:06:00.905Z,22.50
2017-10-15T13:08:29.105Z,22.50
2017-10-15T13:10:57.316Z,22.50
2017-10-15T13:13:25.515Z,22.50
2017-10-15T13:15:53.766Z,22.40
2017-10-15T13:18:22.036Z,22.40
2017-10-15T13:20:50.280Z,22.50
2017-10-15T13:23:18.505Z,22.40
2017-10-15T13:25:46.701Z,22.40
2017-10-15T13:28:14.908Z,22.50
2017-10-15T13:30:43.134Z,22.50
2017-10-15T13:33:11.338Z,22.40
2017-10-15T13:35:39.566Z,22.40
2017-10-15T13:38:07.787Z,22.40
2017-10-15T13:40:36.147Z,22.40
2017-10-15T13:43:04.417Z,22.50
2017-10-15T13:45:32.615Z,22.50
2017-10-15T13:48:00.829Z,22.50
2017-10-15T13:50:29.078Z,22.50
2017-10-15T13:52:57.323Z,22.50
2017-10-15T13:55:25.559Z,22.40
2017-10-15T13:57:53.779Z,22.40
2017-10-15T14:00:22.749Z,22.50
2017-10-15T14:02:51.159Z,22.40
2017-10-15T14:05:19.407Z,22.50
2017-10-15T14:07:47.732Z,22.50
2017-10-15T14:10:15.960Z,22.50
2017-10-15T14:12:44.185Z,22.50
2017-10-15T14:15:12.406Z,22.50
2017-10-15T14:17:40.684Z,22.40
2017-10-15T14:20:08.893Z,22.40
2017-10-15T14:22:37.116Z,22.40
2017-10-15T14:25:05.359Z,22.40
2017-10-15T14:27:33.571Z,22.40
2017-10-15T14:30:01.787Z,22.40
2017-10-15T14:32:30.030Z,22.40
2017-10-15T14:34:58.289Z,22.50
2017-10-15T14:37:26.486Z,22.40
2017-10-15T14:39:55.516Z,22.40
2017-10-15T14:42:23.765Z,22.40
2017-10-15T14:44:52.793Z,22.50
2017-10-15T14:47:21.014Z,22.50
2017-10-15T14:49:49.225Z,22.50
2017-10-15T14:52:17.630Z,22.50
2017-10-15T14:54:45.872Z,22.50
2017-10-15T14:57:14.104Z,22.50
2017-10-15T14:59:42.324Z,22.50
2017-10-15T15:02:10.540Z,22.50
2017-10-15T15:04:38.772Z,22.50
2017-10-15T15:07:06.996Z,22.50
2017-10-15T15:09:35.208Z,22.50
2017-10-15T15:12:04.183Z,22.50
2017-10-15T15:14:32.449Z,22.50
2017-10-15T15:17:00.661Z,22.50
2017-10-15T15:19:28.893Z,22.50
2017-10-15T15:21:57.152Z,22.50
2017-10-15T15:24:25.364Z,22.50
2017-10-15T15:26:54.364Z,22.50
2017-10-15T15:29:23.373Z,22.60
2017-10-15T15:31:51.590Z,22.50
2017-10-15T15:34:19.870Z,22.50
2017-10-15T15:36:48.100Z,22.50
2017-10-15T15:39:16.299Z,22.50
2017-10-15T15:41:44.575Z,22.50
2017-10-15T15:44:12.791Z,22.50
2017-10-15T15:46:41.819Z,22.50
2017-10-15T15:49:10.026Z,22.40
2017-10-15T15:51:38.289Z,22.50
2017-10-15T15:54:06.547Z,22.50
2017-10-15T15:56:34.965Z,22.50
2017-10-15T15:59:03.212Z,22.50
2017-10-15T16:01:31.436Z,22.50
2017-10-15T16:04:00.456Z,22.50
2017-10-15T16:06:29.459Z,22.40
2017-10-15T16:08:57.675Z,22.50
2017-10-15T16:11:25.907Z,22.40
2017-10-15T16:13:57.962Z,22.50
2017-10-15T16:16:26.280Z,22.40
2017-10-15T16:19:20.038Z,22.50
2017-10-15T16:21:48.405Z,22.50
2017-10-15T16:24:17.968Z,22.40
2017-10-15T16:26:46.569Z,22.40
2017-10-15T16:29:17.831Z,22.40
2017-10-15T16:31:47.006Z,22.40
2017-10-15T16:34:15.370Z,22.40
2017-10-15T16:36:43.829Z,22.40
2017-10-15T16:39:33.068Z,22.40
2017-10-15T16:42:02.302Z,22.40
2017-10-15T16:44:41.103Z,22.40
2017-10-15T16:47:09.482Z,22.40
2017-10-15T16:49:38.891Z,22.40
2017-10-15T16:52:11.023Z,22.40
2017-10-15T16:54:41.169Z,22.50
2017-10-15T16:57:10.256Z,22.40
2017-10-15T16:59:38.534Z,22.50
2017-10-15T17:02:06.802Z,22.50
2017-10-15T17:04:35.170Z,22.50
2017-10-15T17:07:05.485Z,22.50
2017-10-15T17:09:35.294Z,22.50
2017-10-15T17:12:04.442Z,22.50
2017-10-15T17:14:32.925Z,22.50
2017-10-15T17:17:05.175Z,22.50
2017-10-15T17:19:33.464Z,22.50
2017-10-15T17:22:02.503Z,22.50
2017-10-15T17:24:30.767Z,22.50
2017-10-15T17:26:58.969Z,22.50
2017-10-15T17:29:27.213Z,22.50
2017-10-15T17:31:55.451Z,22.40
2017-10-15T17:34:23.700Z,22.40
2017-10-15T17:36:51.928Z,22.40
2017-10-15T17:39:20.910Z,22.40
2017-10-15T17:41:49.919Z,22.40
2017-10-15T17:44:18.194Z,22.40
2017-10-15T17:46:46.492Z,22.40
2017-10-15T17:49:14.844Z,22.40
2017-10-15T17:51:43.107Z,22.40
2017-10-15T17:54:12.110Z,22.40
2017-10-15T17:56:44.535Z,22.40
2017-10-15T17:59:13.723Z,22.40
2017-10-15T18:01:42.007Z,22.40
2017-10-15T18:04:10.254Z,22.40
2017-10-15T18:06:38.492Z,22.40
2017-10-15T18:09:07.521Z,22.30
2017-10-15T18:11:36.182Z,22.30
2017-10-15T18:14:04.457Z,22.30
2017-10-15T18:16:32.793Z,22.30
2017-10-15T18:19:03.090Z,22.30
2017-10-15T18:21:31.369Z,22.30
2017-10-15T18:23:59.593Z,22.30
2017-10-15T18:26:28.589Z,22.30
2017-10-15T18:28:57.789Z,22.30
2017-10-15T18:31:26.787Z,22.30
2017-10-15T18:33:55.910Z,22.30
2017-10-15T18:36:24.325Z,22.30
2017-10-15T18:38:53.344Z,22.30
2017-10-15T18:41:21.576Z,22.30
2017-10-15T18:43:49.803Z,22.30
2017-10-15T18:46:18.045Z,22.30
2017-10-15T18:48:46.362Z,22.30
2017-10-15T18:51:14.599Z,22.30
2017-10-15T18:53:42.846Z,22.30
2017-10-15T18:56:11.154Z,22.30
2017-10-15T18:58:40.193Z,22.30
2017-10-15T19:01:08.460Z,22.30
2017-10-15T19:03:36.693Z,22.30
2017-10-15T19:06:05.624Z,22.30
2017-10-15T19:08:33.883Z,22.30
2017-10-15T19:11:02.170Z,22.30
2017-10-15T19:13:30.413Z,22.30
2017-10-15T19:15:58.664Z,22.30
2017-10-15T19:18:27.149Z,22.30
2017-10-15T19:20:56.618Z,22.30
2017-10-15T19:23:25.169Z,22.30
2017-10-15T19:25:55.430Z,22.30
2017-10-15T19:28:23.888Z,22.30
2017-10-15T19:30:52.394Z,22.20
2017-10-15T19:33:20.810Z,22.30
2017-10-15T19:35:50.543Z,22.30
2017-10-15T19:38:18.851Z,22.30
2017-10-15T19:40:47.486Z,22.30
2017-10-15T19:43:34.263Z,22.30
2017-10-15T19:46:02.630Z,22.30
2017-10-15T19:48:32.132Z,22.30
2017-10-15T19:51:01.650Z,22.30
2017-10-15T19:56:33.739Z,22.20
2017-10-15T19:59:04.079Z,22.20
2017-10-15T20:01:34.210Z,22.20
2017-10-15T20:04:03.884Z,22.20
2017-10-15T20:06:32.203Z,22.20
2017-10-15T20:09:02.302Z,22.20
2017-10-15T20:11:32.402Z,22.20
2017-10-15T20:14:03.550Z,22.30
2017-10-15T20:16:34.185Z,22.20
2017-10-15T20:19:06.541Z,22.20
2017-10-15T20:21:34.912Z,22.20
2017-10-15T20:24:03.223Z,22.20
2017-10-15T20:26:32.301Z,22.20
2017-10-15T20:29:01.566Z,22.20
2017-10-15T20:31:35.924Z,22.20
2017-10-15T20:34:05.086Z,22.30
2017-10-15T20:36:34.976Z,22.20
2017-10-15T20:39:03.516Z,22.20
2017-10-15T20:41:37.042Z,22.20
2017-10-15T20:44:09.884Z,22.20
2017-10-15T20:46:39.820Z,22.20
2017-10-15T20:49:10.809Z,22.20
2017-10-15T20:51:39.147Z,22.20
2017-10-15T20:54:08.297Z,22.20
2017-10-15T20:56:36.777Z,22.20
2017-10-15T20:59:10.199Z,22.20
2017-10-15T21:01:40.434Z,22.20
2017-10-15T21:04:08.675Z,22.20
2017-10-15T21:06:36.910Z,22.20
2017-10-15T21:09:10.426Z,22.20
2017-10-15T21:11:39.667Z,22.20
2017-10-15T21:14:08.672Z,22.20
2017-10-15T21:16:37.786Z,22.20
2017-10-15T21:19:07.628Z,22.20
2017-10-15T21:21:36.009Z,22.30
2017-10-15T21:24:04.310Z,22.30
2017-10-15T21:26:37.432Z,22.20
2017-10-15T21:29:05.745Z,22.20
2017-10-15T21:31:34.491Z,22.20
2017-10-15T21:34:03.566Z,22.20
2017-10-15T21:36:31.874Z,22.20
2017-10-15T21:39:00.188Z,22.20
2017-10-15T21:41:28.760Z,22.30
2017-10-15T21:43:57.884Z,22.20
2017-10-15T21:46:27.016Z,22.20
2017-10-15T21:48:56.013Z,22.20
2017-10-15T21:51:24.585Z,22.20
2017-10-15T21:53:52.835Z,22.20
2017-10-15T21:56:21.049Z,22.20
2017-10-15T21:58:49.250Z,22.20
2017-10-15T22:01:19.372Z,22.30
2017-10-15T22:03:47.589Z,22.30
2017-10-15T22:06:16.749Z,22.30
2017-10-15T22:08:44.985Z,22.30
2017-10-15T22:11:13.220Z,22.30
2017-10-15T22:13:41.453Z,22.30
2017-10-15T22:16:09.659Z,22.20
2017-10-15T22:18:43.465Z,22.20
